createdAt,value
2017-03-11T00:00:01.590Z,73710
2017-03-11T00:00:12.126Z,73714
2017-03-11T00:00:22.656Z,73713
2017-03-11T00:00:33.237Z,73705
2017-03-11T00:00:43.829Z,73714
2017-03-11T00:00:54.396Z,73712
2017-03-11T00:01:04.952Z,73713
2017-03-11T00:01:15.124Z,73713
2017-03-11T00:01:25.672Z,73712
2017-03-11T00:01:36.207Z,73709
2017-03-11T00:01:46.742Z,73708
2017-03-11T00:01:57.294Z,73710
2017-03-11T00:02:07.830Z,73712
2017-03-11T00:02:18.371Z,73713
2017-03-11T00:02:28.953Z,73713
2017-03-11T00:02:39.501Z,73712
2017-03-11T00:02:50.048Z,73717
2017-03-11T00:03:00.597Z,73713
2017-03-11T00:03:11.154Z,73711
2017-03-11T00:03:21.350Z,73711
2017-03-11T00:03:31.934Z,73711
2017-03-11T00:03:42.500Z,73714
2017-03-11T00:03:53.070Z,73715
2017-03-11T00:04:03.600Z,73713
2017-03-11T00:04:14.174Z,73714
2017-03-11T00:04:24.718Z,73715
2017-03-11T00:04:35.291Z,73714
2017-03-11T00:04:45.871Z,73714
2017-03-11T00:04:56.408Z,73711
2017-03-11T00:05:06.969Z,73711
2017-03-11T00:05:17.534Z,73711
2017-03-11T00:05:28.087Z,73711
2017-03-11T00:05:38.698Z,73713
2017-03-11T00:05:49.301Z,73711
2017-03-11T00:05:59.869Z,73710
2017-03-11T00:06:10.442Z,73711
2017-03-11T00:06:20.599Z,73708
2017-03-11T00:06:30.410Z,73711
2017-03-11T00:06:40.958Z,73711
2017-03-11T00:06:51.494Z,73713
2017-03-11T00:07:02.035Z,73714
2017-03-11T00:07:12.240Z,73712
2017-03-11T00:07:22.408Z,73713
2017-03-11T00:07:32.990Z,73710
2017-03-11T00:07:43.532Z,73711
2017-03-11T00:07:53.728Z,73709
2017-03-11T00:08:04.267Z,73710
2017-03-11T00:08:14.804Z,73709
2017-03-11T00:08:25.004Z,73714
2017-03-11T00:08:35.194Z,73709
2017-03-11T00:08:45.750Z,73708
2017-03-11T00:08:56.304Z,73707
2017-03-11T00:09:06.476Z,73709
2017-03-11T00:09:16.677Z,73708
2017-03-11T00:09:27.257Z,73710
2017-03-11T00:09:37.825Z,73709
2017-03-11T00:09:48.374Z,73709
2017-03-11T00:09:58.931Z,73710
2017-03-11T00:10:09.148Z,73707
2017-03-11T00:10:19.690Z,73708
2017-03-11T00:10:29.852Z,73703
2017-03-11T00:10:40.397Z,73706
2017-03-11T00:10:50.948Z,73706
2017-03-11T00:11:01.517Z,73704
2017-03-11T00:11:12.087Z,73705
2017-03-11T00:11:22.244Z,73702
2017-03-11T00:11:32.837Z,73705
2017-03-11T00:11:43.383Z,73709
2017-03-11T00:11:53.990Z,73705
2017-03-11T00:12:03.811Z,73713
2017-03-11T00:12:13.621Z,73708
2017-03-11T00:12:24.197Z,73713
2017-03-11T00:12:34.790Z,73710
2017-03-11T00:12:45.336Z,73709
2017-03-11T00:12:55.548Z,73710
2017-03-11T00:13:06.114Z,73710
2017-03-11T00:13:16.312Z,73711
2017-03-11T00:13:26.896Z,73710
2017-03-11T00:13:37.426Z,73710
2017-03-11T00:13:47.948Z,73707
2017-03-11T00:13:58.119Z,73711
2017-03-11T00:14:08.707Z,73709
2017-03-11T00:14:19.265Z,73709
2017-03-11T00:14:29.831Z,73710
2017-03-11T00:14:40.357Z,73707
2017-03-11T00:14:50.921Z,73708
2017-03-11T00:15:01.479Z,73711
2017-03-11T00:15:11.647Z,73710
2017-03-11T00:15:21.833Z,73710
2017-03-11T00:15:32.016Z,73712
2017-03-11T00:15:42.551Z,73704
2017-03-11T00:15:53.123Z,73705
2017-03-11T00:16:03.291Z,73706
2017-03-11T00:16:13.840Z,73707
2017-03-11T00:16:24.387Z,73713
2017-03-11T00:16:34.934Z,73709
2017-03-11T00:16:45.126Z,73712
2017-03-11T00:16:55.672Z,73709
2017-03-11T00:17:05.843Z,73708
2017-03-11T00:17:16.032Z,73711
2017-03-11T00:17:26.236Z,73703
2017-03-11T00:17:36.793Z,73699
2017-03-11T00:17:47.357Z,73703
2017-03-11T00:17:57.904Z,73711
2017-03-11T00:18:08.447Z,73712
2017-03-11T00:18:18.613Z,73710
2017-03-11T00:18:29.169Z,73713
2017-03-11T00:18:39.351Z,73710
2017-03-11T00:18:49.917Z,73712
2017-03-11T00:19:00.477Z,73707
2017-03-11T00:19:11.033Z,73706
2017-03-11T00:19:21.569Z,73710
2017-03-11T00:19:31.748Z,73710
2017-03-11T00:19:42.314Z,73711
2017-03-11T00:19:52.919Z,73714
2017-03-11T00:20:03.090Z,73715
2017-03-11T00:20:13.293Z,73709
2017-03-11T00:20:23.835Z,73704
2017-03-11T00:20:34.414Z,73703
2017-03-11T00:20:44.579Z,73703
2017-03-11T00:20:55.140Z,73706
2017-03-11T00:21:05.285Z,73705
2017-03-11T00:21:15.861Z,73704
2017-03-11T00:21:26.034Z,73707
2017-03-11T00:21:36.232Z,73707
2017-03-11T00:21:46.774Z,73709
2017-03-11T00:21:57.296Z,73717
2017-03-11T00:22:07.846Z,73714
2017-03-11T00:22:18.409Z,73714
2017-03-11T00:22:28.938Z,73714
2017-03-11T00:22:39.115Z,73718
2017-03-11T00:22:49.681Z,73721
2017-03-11T00:23:00.212Z,73718
2017-03-11T00:23:10.780Z,73719
2017-03-11T00:23:21.330Z,73719
2017-03-11T00:23:31.873Z,73721
2017-03-11T00:23:42.458Z,73721
2017-03-11T00:23:52.997Z,73719
2017-03-11T00:24:03.144Z,73720
2017-03-11T00:24:13.688Z,73715
2017-03-11T00:24:24.292Z,73713
2017-03-11T00:24:34.461Z,73713
2017-03-11T00:24:44.613Z,73714
2017-03-11T00:24:55.165Z,73714
2017-03-11T00:25:05.343Z,73717
2017-03-11T00:25:15.521Z,73719
2017-03-11T00:25:26.066Z,73724
2017-03-11T00:25:36.626Z,73716
2017-03-11T00:25:46.813Z,73724
2017-03-11T00:25:57.341Z,73719
2017-03-11T00:26:07.903Z,73718
2017-03-11T00:26:18.480Z,73722
2017-03-11T00:26:29.044Z,73724
2017-03-11T00:26:39.624Z,73716
2017-03-11T00:26:50.177Z,73719
2017-03-11T00:27:00.357Z,73718
2017-03-11T00:27:10.183Z,73715
2017-03-11T00:27:20.726Z,73717
2017-03-11T00:27:31.277Z,73717
2017-03-11T00:27:41.874Z,73718
2017-03-11T00:27:52.460Z,73719
2017-03-11T00:28:03.018Z,73713
2017-03-11T00:28:12.821Z,73715
2017-03-11T00:28:23.359Z,73715
2017-03-11T00:28:33.905Z,73717
2017-03-11T00:28:44.433Z,73716
2017-03-11T00:28:54.998Z,73719
2017-03-11T00:29:05.557Z,73718
2017-03-11T00:29:16.130Z,73721
2017-03-11T00:29:26.323Z,73721
2017-03-11T00:29:36.921Z,73721
2017-03-11T00:29:47.479Z,73721
2017-03-11T00:29:58.050Z,73720
2017-03-11T00:30:08.580Z,73721
2017-03-11T00:30:18.749Z,73723
2017-03-11T00:30:29.316Z,73724
2017-03-11T00:30:39.132Z,73721
2017-03-11T00:30:49.679Z,73722
2017-03-11T00:30:59.867Z,73723
2017-03-11T00:31:10.057Z,73724
2017-03-11T00:31:20.615Z,73728
2017-03-11T00:31:31.132Z,73729
2017-03-11T00:31:41.282Z,73726
2017-03-11T00:31:51.865Z,73724
2017-03-11T00:32:02.433Z,73727
2017-03-11T00:32:12.621Z,73728
2017-03-11T00:32:22.819Z,73729
2017-03-11T00:32:33.433Z,73726
2017-03-11T00:32:44.019Z,73725
2017-03-11T00:32:54.572Z,73722
2017-03-11T00:33:05.149Z,73725
2017-03-11T00:33:15.711Z,73722
2017-03-11T00:33:26.249Z,73722
2017-03-11T00:33:36.412Z,73723
2017-03-11T00:33:47.018Z,73724
2017-03-11T00:33:57.585Z,73724
2017-03-11T00:34:07.771Z,73719
2017-03-11T00:34:18.350Z,73722
2017-03-11T00:34:28.543Z,73724
2017-03-11T00:34:39.075Z,73725
2017-03-11T00:34:49.256Z,73718
2017-03-11T00:34:59.866Z,73719
2017-03-11T00:35:10.406Z,73721
2017-03-11T00:35:20.576Z,73723
2017-03-11T00:35:31.102Z,73725
2017-03-11T00:35:41.652Z,73723
2017-03-11T00:35:52.202Z,73723
2017-03-11T00:36:02.398Z,73724
2017-03-11T00:36:12.568Z,73724
2017-03-11T00:36:23.135Z,73721
2017-03-11T00:36:33.692Z,73726
2017-03-11T00:36:44.237Z,73728
2017-03-11T00:36:54.798Z,73728
2017-03-11T00:37:05.400Z,73728
2017-03-11T00:37:15.560Z,73729
2017-03-11T00:37:26.089Z,73729
2017-03-11T00:37:36.630Z,73731
2017-03-11T00:37:47.181Z,73729
2017-03-11T00:37:57.763Z,73730
2017-03-11T00:38:07.941Z,73728
2017-03-11T00:38:18.146Z,73727
2017-03-11T00:38:28.737Z,73725
2017-03-11T00:38:39.341Z,73727
2017-03-11T00:38:49.869Z,73723
2017-03-11T00:39:00.027Z,73724
2017-03-11T00:39:10.206Z,73724
2017-03-11T00:39:20.784Z,73724
2017-03-11T00:39:31.319Z,73725
2017-03-11T00:39:41.891Z,73721
2017-03-11T00:39:52.416Z,73727
2017-03-11T00:40:02.970Z,73725
2017-03-11T00:40:13.522Z,73725
2017-03-11T00:40:23.686Z,73728
2017-03-11T00:40:34.266Z,73724
2017-03-11T00:40:44.821Z,73730
2017-03-11T00:40:55.355Z,73726
2017-03-11T00:41:05.543Z,73726
2017-03-11T00:41:16.102Z,73724
2017-03-11T00:41:26.310Z,73723
2017-03-11T00:41:36.921Z,73714
2017-03-11T00:41:47.524Z,73722
2017-03-11T00:41:58.051Z,73726
2017-03-11T00:42:07.859Z,73725
2017-03-11T00:42:17.678Z,73722
2017-03-11T00:42:28.230Z,73720
2017-03-11T00:42:38.780Z,73720
2017-03-11T00:42:49.355Z,73724
2017-03-11T00:42:59.907Z,73719
2017-03-11T00:43:10.103Z,73719
2017-03-11T00:43:20.654Z,73725
2017-03-11T00:43:30.814Z,73722
2017-03-11T00:43:41.337Z,73722
2017-03-11T00:43:51.920Z,73720
2017-03-11T00:44:02.485Z,73723
2017-03-11T00:44:13.047Z,73719
2017-03-11T00:44:23.637Z,73722
2017-03-11T00:44:34.232Z,73725
2017-03-11T00:44:44.784Z,73724
2017-03-11T00:44:55.363Z,73722
2017-03-11T00:45:05.886Z,73723
2017-03-11T00:45:16.480Z,73723
2017-03-11T00:45:26.649Z,73726
2017-03-11T00:45:36.814Z,73724
2017-03-11T00:45:47.373Z,73727
2017-03-11T00:45:57.894Z,73726
2017-03-11T00:46:08.448Z,73726
2017-03-11T00:46:18.969Z,73731
2017-03-11T00:46:29.532Z,73727
2017-03-11T00:46:40.089Z,73728
2017-03-11T00:46:50.296Z,73734
2017-03-11T00:47:00.855Z,73726
2017-03-11T00:47:11.380Z,73729
2017-03-11T00:47:21.593Z,73728
2017-03-11T00:47:32.141Z,73728
2017-03-11T00:47:42.735Z,73728
2017-03-11T00:47:52.535Z,73726
2017-03-11T00:48:03.085Z,73731
2017-03-11T00:48:13.619Z,73727
2017-03-11T00:48:24.190Z,73729
2017-03-11T00:48:34.766Z,73729
2017-03-11T00:48:45.331Z,73725
2017-03-11T00:48:55.885Z,73730
2017-03-11T00:49:06.450Z,73725
2017-03-11T00:49:17.027Z,73726
2017-03-11T00:49:27.223Z,73728
2017-03-11T00:49:37.760Z,73726
2017-03-11T00:49:48.321Z,73725
2017-03-11T00:49:58.881Z,73725
2017-03-11T00:50:09.049Z,73725
2017-03-11T00:50:19.659Z,73724
2017-03-11T00:50:29.843Z,73721
2017-03-11T00:50:40.411Z,73721
2017-03-11T00:50:50.963Z,73719
2017-03-11T00:51:01.534Z,73722
2017-03-11T00:51:11.685Z,73717
2017-03-11T00:51:22.229Z,73716
2017-03-11T00:51:32.770Z,73718
2017-03-11T00:51:43.328Z,73720
2017-03-11T00:51:53.866Z,73717
2017-03-11T00:52:04.054Z,73721
2017-03-11T00:52:14.216Z,73720
2017-03-11T00:52:24.396Z,73716
2017-03-11T00:52:34.552Z,73719
2017-03-11T00:52:45.090Z,73718
2017-03-11T00:52:55.628Z,73721
2017-03-11T00:53:06.198Z,73718
2017-03-11T00:53:16.806Z,73718
2017-03-11T00:53:26.978Z,73717
2017-03-11T00:53:37.528Z,73713
2017-03-11T00:53:48.077Z,73718
2017-03-11T00:53:58.275Z,73715
2017-03-11T00:54:08.463Z,73716
2017-03-11T00:54:19.021Z,73717
2017-03-11T00:54:29.183Z,73718
2017-03-11T00:54:39.759Z,73716
2017-03-11T00:54:50.308Z,73720
2017-03-11T00:55:00.845Z,73718
2017-03-11T00:55:11.392Z,73714
2017-03-11T00:55:21.952Z,73717
2017-03-11T00:55:32.534Z,73715
2017-03-11T00:55:43.114Z,73718
2017-03-11T00:55:53.280Z,73714
2017-03-11T00:56:03.854Z,73717
2017-03-11T00:56:13.658Z,73716
2017-03-11T00:56:24.179Z,73715
2017-03-11T00:56:34.780Z,73711
2017-03-11T00:56:45.345Z,73713
2017-03-11T00:56:55.933Z,73713
2017-03-11T00:57:06.091Z,73712
2017-03-11T00:57:16.657Z,73717
2017-03-11T00:57:27.246Z,73716
2017-03-11T00:57:37.783Z,73715
2017-03-11T00:57:48.314Z,73719
2017-03-11T00:57:58.868Z,73720
2017-03-11T00:58:09.411Z,73719
2017-03-11T00:58:20.009Z,73717
2017-03-11T00:58:30.553Z,73717
2017-03-11T00:58:41.110Z,73717
2017-03-11T00:58:51.671Z,73716
2017-03-11T00:59:02.258Z,73718
2017-03-11T00:59:12.804Z,73716
2017-03-11T00:59:22.970Z,73718
2017-03-11T00:59:33.544Z,73716
2017-03-11T00:59:44.095Z,73717
2017-03-11T00:59:54.654Z,73718
2017-03-11T01:00:04.837Z,73715
2017-03-11T01:00:15.386Z,73710
2017-03-11T01:00:25.573Z,73712
2017-03-11T01:00:36.177Z,73714
2017-03-11T01:00:46.737Z,73713
2017-03-11T01:00:57.291Z,73712
2017-03-11T01:01:07.848Z,73712
2017-03-11T01:01:18.009Z,73712
2017-03-11T01:01:28.527Z,73712
2017-03-11T01:01:39.050Z,73715
2017-03-11T01:01:49.595Z,73713
2017-03-11T01:02:00.149Z,73710
2017-03-11T01:02:10.679Z,73712
2017-03-11T01:02:20.861Z,73712
2017-03-11T01:02:31.406Z,73711
2017-03-11T01:02:41.937Z,73708
2017-03-11T01:02:52.507Z,73707
2017-03-11T01:03:03.079Z,73707
2017-03-11T01:03:13.681Z,73704
2017-03-11T01:03:24.223Z,73706
2017-03-11T01:03:34.046Z,73710
2017-03-11T01:03:44.610Z,73709
2017-03-11T01:03:55.166Z,73713
2017-03-11T01:04:05.340Z,73712
2017-03-11T01:04:15.531Z,73709
2017-03-11T01:04:26.071Z,73707
2017-03-11T01:04:36.283Z,73709
2017-03-11T01:04:46.820Z,73709
2017-03-11T01:04:57.377Z,73707
2017-03-11T01:05:07.595Z,73706
2017-03-11T01:05:18.125Z,73710
2017-03-11T01:05:28.681Z,73711
2017-03-11T01:05:39.235Z,73711
2017-03-11T01:05:49.794Z,73712
2017-03-11T01:06:00.345Z,73712
2017-03-11T01:06:10.908Z,73712
2017-03-11T01:06:21.112Z,73711
2017-03-11T01:06:31.670Z,73709
2017-03-11T01:06:42.221Z,73714
2017-03-11T01:06:52.753Z,73710
2017-03-11T01:07:03.351Z,73707
2017-03-11T01:07:13.514Z,73708
2017-03-11T01:07:24.054Z,73709
2017-03-11T01:07:34.620Z,73715
2017-03-11T01:07:44.806Z,73710
2017-03-11T01:07:55.392Z,73713
2017-03-11T01:08:05.553Z,73711
2017-03-11T01:08:15.755Z,73712
2017-03-11T01:08:25.963Z,73715
2017-03-11T01:08:36.516Z,73714
2017-03-11T01:08:47.117Z,73711
2017-03-11T01:08:57.689Z,73709
2017-03-11T01:09:07.897Z,73711
2017-03-11T01:09:18.089Z,73709
2017-03-11T01:09:28.263Z,73712
2017-03-11T01:09:38.800Z,73704
2017-03-11T01:09:49.365Z,73709
2017-03-11T01:09:59.901Z,73708
2017-03-11T01:10:10.495Z,73709
2017-03-11T01:10:21.040Z,73707
2017-03-11T01:10:31.575Z,73707
2017-03-11T01:10:42.135Z,73710
2017-03-11T01:10:52.702Z,73712
2017-03-11T01:11:03.246Z,73709
2017-03-11T01:11:13.783Z,73706
2017-03-11T01:11:23.624Z,73705
2017-03-11T01:11:33.809Z,73706
2017-03-11T01:11:43.971Z,73705
2017-03-11T01:11:54.140Z,73709
2017-03-11T01:12:04.707Z,73709
2017-03-11T01:12:14.870Z,73710
2017-03-11T01:12:25.415Z,73709
2017-03-11T01:12:35.952Z,73710
2017-03-11T01:12:46.485Z,73709
2017-03-11T01:12:56.660Z,73709
2017-03-11T01:13:07.190Z,73708
2017-03-11T01:13:17.719Z,73707
2017-03-11T01:13:27.544Z,73706
2017-03-11T01:13:38.087Z,73707
2017-03-11T01:13:48.629Z,73702
2017-03-11T01:13:59.201Z,73704
2017-03-11T01:14:09.758Z,73705
2017-03-11T01:14:19.947Z,73707
2017-03-11T01:14:30.530Z,73710
2017-03-11T01:14:41.043Z,73705
2017-03-11T01:14:51.571Z,73708
2017-03-11T01:15:01.746Z,73706
2017-03-11T01:15:12.271Z,73709
2017-03-11T01:15:22.832Z,73708
2017-03-11T01:15:33.411Z,73702
2017-03-11T01:15:43.949Z,73705
2017-03-11T01:15:54.516Z,73708
2017-03-11T01:16:05.065Z,73706
2017-03-11T01:16:15.617Z,73709
2017-03-11T01:16:26.171Z,73703
2017-03-11T01:16:36.371Z,73705
2017-03-11T01:16:46.934Z,73708
2017-03-11T01:16:57.461Z,73703
2017-03-11T01:17:07.664Z,73705
2017-03-11T01:17:17.861Z,73705
2017-03-11T01:17:28.429Z,73701
2017-03-11T01:17:38.964Z,73704
2017-03-11T01:17:49.506Z,73705
2017-03-11T01:18:00.055Z,73703
2017-03-11T01:18:10.218Z,73705
2017-03-11T01:18:20.751Z,73704
2017-03-11T01:18:30.925Z,73706
2017-03-11T01:18:41.460Z,73706
2017-03-11T01:18:52.007Z,73709
2017-03-11T01:19:02.551Z,73705
2017-03-11T01:19:13.093Z,73710
2017-03-11T01:19:23.257Z,73710
2017-03-11T01:19:33.792Z,73707
2017-03-11T01:19:43.970Z,73705
2017-03-11T01:19:54.527Z,73707
2017-03-11T01:20:04.336Z,73705
2017-03-11T01:20:14.861Z,73705
2017-03-11T01:20:25.424Z,73706
2017-03-11T01:20:35.948Z,73704
2017-03-11T01:20:46.527Z,73706
2017-03-11T01:20:56.335Z,73707
2017-03-11T01:21:06.891Z,73712
2017-03-11T01:21:17.474Z,73711
2017-03-11T01:21:27.683Z,73708
2017-03-11T01:21:38.219Z,73711
2017-03-11T01:21:48.854Z,73707
2017-03-11T01:21:59.488Z,73708
2017-03-11T01:22:09.700Z,73704
2017-03-11T01:22:20.255Z,73701
2017-03-11T01:22:30.831Z,73703
2017-03-11T01:22:41.418Z,73707
2017-03-11T01:22:51.947Z,73706
2017-03-11T01:23:02.473Z,73707
2017-03-11T01:23:13.038Z,73704
2017-03-11T01:23:23.572Z,73706
2017-03-11T01:23:34.125Z,73707
2017-03-11T01:23:44.710Z,73704
2017-03-11T01:23:55.270Z,73707
2017-03-11T01:24:05.440Z,73707
2017-03-11T01:24:15.614Z,73707
2017-03-11T01:24:26.183Z,73707
2017-03-11T01:24:36.343Z,73709
2017-03-11T01:24:46.892Z,73706
2017-03-11T01:24:57.469Z,73707
2017-03-11T01:25:08.041Z,73706
2017-03-11T01:25:18.588Z,73708
2017-03-11T01:25:28.749Z,73704
2017-03-11T01:25:39.274Z,73709
2017-03-11T01:25:49.822Z,73704
2017-03-11T01:26:00.405Z,73704
2017-03-11T01:26:10.173Z,73702
2017-03-11T01:26:20.337Z,73704
2017-03-11T01:26:30.917Z,73704
2017-03-11T01:26:41.482Z,73703
2017-03-11T01:26:52.036Z,73705
2017-03-11T01:27:02.625Z,73710
2017-03-11T01:27:13.161Z,73706
2017-03-11T01:27:22.978Z,73706
2017-03-11T01:27:33.192Z,73707
2017-03-11T01:27:43.742Z,73707
2017-03-11T01:27:54.321Z,73705
2017-03-11T01:28:04.875Z,73706
2017-03-11T01:28:15.046Z,73708
2017-03-11T01:28:25.572Z,73706
2017-03-11T01:28:36.130Z,73704
2017-03-11T01:28:46.694Z,73703
2017-03-11T01:28:56.871Z,73702
2017-03-11T01:29:07.423Z,73702
2017-03-11T01:29:17.989Z,73703
2017-03-11T01:29:28.536Z,73703
2017-03-11T01:29:39.084Z,73704
2017-03-11T01:29:49.293Z,73703
2017-03-11T01:29:59.868Z,73707
2017-03-11T01:30:10.452Z,73707
2017-03-11T01:30:21.022Z,73707
2017-03-11T01:30:31.186Z,73707
2017-03-11T01:30:41.791Z,73707
2017-03-11T01:30:51.984Z,73708
2017-03-11T01:31:02.553Z,73710
2017-03-11T01:31:13.098Z,73710
2017-03-11T01:31:23.265Z,73704
2017-03-11T01:31:33.803Z,73705
2017-03-11T01:31:44.360Z,73707
2017-03-11T01:31:54.958Z,73704
2017-03-11T01:32:05.502Z,73704
2017-03-11T01:32:16.073Z,73710
2017-03-11T01:32:26.276Z,73708
2017-03-11T01:32:36.800Z,73709
2017-03-11T01:32:47.372Z,73708
2017-03-11T01:32:57.940Z,73709
2017-03-11T01:33:08.516Z,73707
2017-03-11T01:33:19.064Z,73707
2017-03-11T01:33:29.626Z,73705
2017-03-11T01:33:40.168Z,73706
2017-03-11T01:33:50.758Z,73704
2017-03-11T01:34:01.321Z,73709
2017-03-11T01:34:11.481Z,73708
2017-03-11T01:34:21.641Z,73706
2017-03-11T01:34:32.160Z,73707
2017-03-11T01:34:42.755Z,73706
2017-03-11T01:34:52.961Z,73704
2017-03-11T01:35:03.532Z,73705
2017-03-11T01:35:13.720Z,73705
2017-03-11T01:35:24.283Z,73708
2017-03-11T01:35:34.838Z,73706
2017-03-11T01:35:45.037Z,73704
2017-03-11T01:35:55.607Z,73705
2017-03-11T01:36:06.161Z,73706
2017-03-11T01:36:16.341Z,73702
2017-03-11T01:36:26.887Z,73703
2017-03-11T01:36:37.428Z,73702
2017-03-11T01:36:47.981Z,73705
2017-03-11T01:36:58.529Z,73704
2017-03-11T01:37:09.130Z,73707
2017-03-11T01:37:18.911Z,73707
2017-03-11T01:37:29.486Z,73707
2017-03-11T01:37:40.033Z,73703
2017-03-11T01:37:50.574Z,73702
2017-03-11T01:38:01.099Z,73702
2017-03-11T01:38:11.272Z,73704
2017-03-11T01:38:21.822Z,73701
2017-03-11T01:38:31.650Z,73701
2017-03-11T01:38:42.254Z,73701
2017-03-11T01:38:52.804Z,73699
2017-03-11T01:39:03.360Z,73702
2017-03-11T01:39:13.903Z,73704
2017-03-11T01:39:24.477Z,73700
2017-03-11T01:39:34.999Z,73703
2017-03-11T01:39:45.227Z,73700
2017-03-11T01:39:55.455Z,73703
2017-03-11T01:40:05.661Z,73700
2017-03-11T01:40:15.843Z,73700
2017-03-11T01:40:26.393Z,73699
2017-03-11T01:40:36.955Z,73701
2017-03-11T01:40:47.603Z,73702
2017-03-11T01:40:57.794Z,73696
2017-03-11T01:41:07.980Z,73697
2017-03-11T01:41:18.191Z,73697
2017-03-11T01:41:28.761Z,73696
2017-03-11T01:41:39.320Z,73697
2017-03-11T01:41:49.877Z,73698
2017-03-11T01:42:00.443Z,73695
2017-03-11T01:42:10.643Z,73695
2017-03-11T01:42:21.182Z,73697
2017-03-11T01:42:31.760Z,73693
2017-03-11T01:42:42.287Z,73694
2017-03-11T01:42:52.849Z,73697
2017-03-11T01:43:03.391Z,73695
2017-03-11T01:43:13.568Z,73697
2017-03-11T01:43:24.123Z,73698
2017-03-11T01:43:34.655Z,73694
2017-03-11T01:43:45.200Z,73695
2017-03-11T01:43:55.804Z,73695
2017-03-11T01:44:05.972Z,73690
2017-03-11T01:44:16.163Z,73688
2017-03-11T01:44:26.387Z,73688
2017-03-11T01:44:36.908Z,73691
2017-03-11T01:44:47.463Z,73690
2017-03-11T01:44:58.072Z,73691
2017-03-11T01:45:08.260Z,73687
2017-03-11T01:45:18.446Z,73690
2017-03-11T01:45:28.607Z,73686
2017-03-11T01:45:39.226Z,73689
2017-03-11T01:45:49.814Z,73688
2017-03-11T01:46:00.376Z,73689
2017-03-11T01:46:10.562Z,73687
2017-03-11T01:46:21.120Z,73693
2017-03-11T01:46:31.690Z,73693
2017-03-11T01:46:42.242Z,73690
2017-03-11T01:46:52.806Z,73689
2017-03-11T01:47:03.359Z,73688
2017-03-11T01:47:13.575Z,73690
2017-03-11T01:47:23.382Z,73686
2017-03-11T01:47:33.944Z,73688
2017-03-11T01:47:44.498Z,73692
2017-03-11T01:47:55.076Z,73691
2017-03-11T01:48:05.599Z,73690
2017-03-11T01:48:15.790Z,73693
2017-03-11T01:48:26.009Z,73690
2017-03-11T01:48:36.560Z,73688
2017-03-11T01:48:47.116Z,73688
2017-03-11T01:48:57.304Z,73690
2017-03-11T01:49:07.864Z,73693
2017-03-11T01:49:17.668Z,73692
2017-03-11T01:49:27.862Z,73695
2017-03-11T01:49:38.433Z,73693
2017-03-11T01:49:48.603Z,73692
2017-03-11T01:49:59.164Z,73692
2017-03-11T01:50:09.382Z,73692
2017-03-11T01:50:19.911Z,73693
2017-03-11T01:50:30.515Z,73695
2017-03-11T01:50:41.035Z,73691
2017-03-11T01:50:51.593Z,73691
2017-03-11T01:51:01.776Z,73691
2017-03-11T01:51:12.319Z,73692
2017-03-11T01:51:22.503Z,73694
2017-03-11T01:51:33.111Z,73697
2017-03-11T01:51:43.696Z,73695
2017-03-11T01:51:54.271Z,73692
2017-03-11T01:52:04.810Z,73692
2017-03-11T01:52:15.358Z,73693
2017-03-11T01:52:25.547Z,73690
2017-03-11T01:52:36.102Z,73695
2017-03-11T01:52:46.701Z,73697
2017-03-11T01:52:57.228Z,73697
2017-03-11T01:53:07.781Z,73691
2017-03-11T01:53:18.392Z,73695
2017-03-11T01:53:28.927Z,73694
2017-03-11T01:53:39.471Z,73695
2017-03-11T01:53:50.007Z,73695
2017-03-11T01:54:00.526Z,73697
2017-03-11T01:54:10.674Z,73701
2017-03-11T01:54:21.209Z,73697
2017-03-11T01:54:31.752Z,73700
2017-03-11T01:54:42.304Z,73697
2017-03-11T01:54:52.852Z,73698
2017-03-11T01:55:03.060Z,73700
2017-03-11T01:55:13.629Z,73697
2017-03-11T01:55:23.782Z,73695
2017-03-11T01:55:34.339Z,73696
2017-03-11T01:55:44.935Z,73697
2017-03-11T01:55:55.557Z,73697
2017-03-11T01:56:05.718Z,73695
2017-03-11T01:56:16.239Z,73697
2017-03-11T01:56:26.411Z,73697
2017-03-11T01:56:36.613Z,73700
2017-03-11T01:56:47.161Z,73700
2017-03-11T01:56:57.726Z,73700
2017-03-11T01:57:08.286Z,73697
2017-03-11T01:57:18.514Z,73696
2017-03-11T01:57:28.683Z,73698
2017-03-11T01:57:39.271Z,73698
2017-03-11T01:57:49.834Z,73699
2017-03-11T01:58:00.382Z,73695
2017-03-11T01:58:10.941Z,73700
2017-03-11T01:58:21.492Z,73699
2017-03-11T01:58:32.022Z,73701
2017-03-11T01:58:42.573Z,73698
2017-03-11T01:58:53.113Z,73700
2017-03-11T01:59:03.675Z,73701
2017-03-11T01:59:14.266Z,73706
2017-03-11T01:59:24.061Z,73699
2017-03-11T01:59:34.617Z,73700
2017-03-11T01:59:45.168Z,73703
2017-03-11T01:59:55.354Z,73703
2017-03-11T02:00:05.956Z,73701
2017-03-11T02:00:16.513Z,73700
2017-03-11T02:00:27.072Z,73701
2017-03-11T02:00:37.650Z,73698
2017-03-11T02:00:48.214Z,73698
2017-03-11T02:00:58.379Z,73702
2017-03-11T02:01:08.935Z,73700
2017-03-11T02:01:19.486Z,73699
2017-03-11T02:01:30.036Z,73701
2017-03-11T02:01:40.583Z,73698
2017-03-11T02:01:51.122Z,73696
2017-03-11T02:02:01.660Z,73694
2017-03-11T02:02:11.118Z,73693
2017-03-11T02:02:21.673Z,73697
2017-03-11T02:02:32.225Z,73697
2017-03-11T02:02:42.766Z,73701
2017-03-11T02:02:52.928Z,73694
2017-03-11T02:03:03.528Z,73695
2017-03-11T02:03:13.358Z,73696
2017-03-11T02:03:23.895Z,73698
2017-03-11T02:03:34.445Z,73696
2017-03-11T02:03:44.993Z,73697
2017-03-11T02:03:55.553Z,73694
2017-03-11T02:04:06.069Z,73697
2017-03-11T02:04:16.265Z,73700
2017-03-11T02:04:26.855Z,73698
2017-03-11T02:04:37.385Z,73693
2017-03-11T02:04:47.932Z,73699
2017-03-11T02:04:58.118Z,73697
2017-03-11T02:05:08.280Z,73701
2017-03-11T02:05:18.471Z,73700
2017-03-11T02:05:29.048Z,73697
2017-03-11T02:05:39.602Z,73694
2017-03-11T02:05:50.157Z,73696
2017-03-11T02:06:00.360Z,73696
2017-03-11T02:06:10.949Z,73697
2017-03-11T02:06:21.481Z,73697
2017-03-11T02:06:32.074Z,73697
2017-03-11T02:06:42.256Z,73698
2017-03-11T02:06:52.826Z,73701
2017-03-11T02:07:03.376Z,73696
2017-03-11T02:07:13.223Z,73701
2017-03-11T02:07:23.385Z,73694
2017-03-11T02:07:33.921Z,73699
2017-03-11T02:07:44.452Z,73695
2017-03-11T02:07:55.041Z,73695
2017-03-11T02:08:05.211Z,73700
2017-03-11T02:08:15.405Z,73698
2017-03-11T02:08:25.579Z,73699
2017-03-11T02:08:35.781Z,73698
2017-03-11T02:08:46.344Z,73701
2017-03-11T02:08:56.511Z,73702
2017-03-11T02:09:07.066Z,73700
2017-03-11T02:09:16.839Z,73702
2017-03-11T02:09:27.396Z,73704
2017-03-11T02:09:37.994Z,73698
2017-03-11T02:09:48.560Z,73698
2017-03-11T02:09:58.744Z,73702
2017-03-11T02:10:09.289Z,73697
2017-03-11T02:10:19.141Z,73698
2017-03-11T02:10:29.326Z,73701
2017-03-11T02:10:39.904Z,73697
2017-03-11T02:10:50.454Z,73700
2017-03-11T02:11:01.043Z,73697
2017-03-11T02:11:11.223Z,73698
2017-03-11T02:11:21.769Z,73699
2017-03-11T02:11:32.320Z,73701
2017-03-11T02:11:42.876Z,73695
2017-03-11T02:11:53.411Z,73700
2017-03-11T02:12:03.981Z,73696
2017-03-11T02:12:14.175Z,73695
2017-03-11T02:12:24.709Z,73696
2017-03-11T02:12:35.273Z,73693
2017-03-11T02:12:45.390Z,73694
2017-03-11T02:12:55.922Z,73694
2017-03-11T02:13:06.445Z,73692
2017-03-11T02:13:16.615Z,73693
2017-03-11T02:13:27.215Z,73694
2017-03-11T02:13:37.762Z,73694
2017-03-11T02:13:48.301Z,73691
2017-03-11T02:13:58.854Z,73696
2017-03-11T02:14:09.034Z,73694
2017-03-11T02:14:19.579Z,73696